createdAt,value
2019-01-30T00:02:25.184Z,4.40
2019-01-30T00:04:52.808Z,4.50
2019-01-30T00:07:20.448Z,4.53
2019-01-30T00:09:48.086Z,4.57
2019-01-30T00:12:15.868Z,4.40
2019-01-30T00:14:43.555Z,4.77
2019-01-30T00:17:11.206Z,4.70
2019-01-30T00:19:38.965Z,4.33
2019-01-30T00:22:06.668Z,5.03
2019-01-30T00:24:34.589Z,4.27
2019-01-30T00:27:02.227Z,4.93
2019-01-30T00:29:29.944Z,4.63
2019-01-30T00:31:57.869Z,5.20
2019-01-30T00:34:25.588Z,4.70
2019-01-30T00:36:53.357Z,4.67
2019-01-30T00:39:21.010Z,4.30
2019-01-30T00:41:49.363Z,4.60
2019-01-30T00:44:17.004Z,4.53
2019-01-30T00:46:44.774Z,4.53
2019-01-30T00:49:12.460Z,4.33
2019-01-30T00:51:40.128Z,4.40
2019-01-30T00:54:07.961Z,4.33
2019-01-30T00:56:35.699Z,4.80
2019-01-30T00:59:03.725Z,4.77
2019-01-30T01:01:31.592Z,4.47
2019-01-30T01:04:00.424Z,4.57
2019-01-30T01:06:29.028Z,4.53
2019-01-30T01:08:57.487Z,4.83
2019-01-30T01:11:25.200Z,4.43
2019-01-30T01:13:52.852Z,4.37
2019-01-30T01:16:20.463Z,4.50
2019-01-30T01:18:48.154Z,4.47
2019-01-30T01:21:15.797Z,4.80
2019-01-30T01:23:43.470Z,4.63
2019-01-30T01:26:11.115Z,4.23
2019-01-30T01:28:38.837Z,4.63
2019-01-30T01:31:06.545Z,4.83
2019-01-30T01:33:34.233Z,4.70
2019-01-30T01:36:02.060Z,4.80
2019-01-30T01:42:19.434Z,4.17
2019-01-30T01:44:47.097Z,4.33
2019-01-30T01:47:14.760Z,4.40
2019-01-30T01:49:42.431Z,4.37
2019-01-30T01:52:10.119Z,4.77
2019-01-30T01:54:37.834Z,4.33
2019-01-30T01:57:05.512Z,4.90
2019-01-30T01:59:33.228Z,4.37
2019-01-30T02:02:00.883Z,4.50
2019-01-30T02:04:28.604Z,4.70
2019-01-30T02:06:56.229Z,4.63
2019-01-30T02:09:23.933Z,4.83
2019-01-30T02:11:51.614Z,4.60
2019-01-30T02:14:19.294Z,4.53
2019-01-30T02:16:46.927Z,5.03
2019-01-30T02:19:14.618Z,4.30
2019-01-30T02:21:42.226Z,4.87
2019-01-30T02:24:09.920Z,4.60
2019-01-30T02:26:37.604Z,4.50
2019-01-30T02:29:05.343Z,4.70
2019-01-30T02:31:33.011Z,4.93
2019-01-30T02:34:00.744Z,4.73
2019-01-30T02:36:28.427Z,4.80
2019-01-30T02:38:56.171Z,4.90
2019-01-30T02:41:23.830Z,4.97
2019-01-30T02:43:51.522Z,5.13
2019-01-30T02:46:19.146Z,4.57
2019-01-30T02:48:46.833Z,4.83
2019-01-30T02:51:14.491Z,4.93
2019-01-30T02:53:42.176Z,5.20
2019-01-30T02:56:09.886Z,5.43
2019-01-30T02:58:37.606Z,5.30
2019-01-30T03:01:05.346Z,5.13
2019-01-30T03:03:33.416Z,5.53
2019-01-30T03:06:01.098Z,5.70
2019-01-30T03:08:30.181Z,6.17
2019-01-30T03:10:58.022Z,6.37
2019-01-30T03:13:28.056Z,5.93
2019-01-30T03:15:56.014Z,6.17
2019-01-30T03:18:24.778Z,6.70
2019-01-30T03:20:52.904Z,6.30
2019-01-30T03:23:22.437Z,7.43
2019-01-30T03:25:51.904Z,6.67
2019-01-30T03:28:19.615Z,7.13
2019-01-30T03:30:47.721Z,6.87
2019-01-30T03:33:15.389Z,7.37
2019-01-30T03:35:43.506Z,8.03
2019-01-30T03:38:11.138Z,7.27
2019-01-30T03:40:38.932Z,7.73
2019-01-30T03:43:06.937Z,7.63
2019-01-30T03:45:36.516Z,7.83
2019-01-30T03:48:05.011Z,8.53
2019-01-30T03:50:32.832Z,8.37
2019-01-30T03:53:00.876Z,9.07
2019-01-30T03:55:28.538Z,7.80
2019-01-30T03:57:56.312Z,8.23
2019-01-30T04:00:24.657Z,8.37
2019-01-30T04:02:52.662Z,8.90
2019-01-30T04:05:21.993Z,8.80
2019-01-30T04:07:49.642Z,7.53
2019-01-30T04:10:19.034Z,7.97
2019-01-30T04:12:46.664Z,8.37
2019-01-30T04:15:16.361Z,7.50
2019-01-30T04:17:45.580Z,8.57
2019-01-30T04:20:15.392Z,7.93
2019-01-30T04:22:43.097Z,7.57
2019-01-30T04:25:11.018Z,8.07
2019-01-30T04:27:38.702Z,9.00
2019-01-30T04:30:12.825Z,7.93
2019-01-30T04:32:40.477Z,8.27
2019-01-30T04:35:08.193Z,7.77
2019-01-30T04:37:35.946Z,7.77
2019-01-30T04:40:05.876Z,7.73
2019-01-30T04:42:33.552Z,7.97
2019-01-30T04:45:01.240Z,7.87
2019-01-30T04:47:28.951Z,7.83
2019-01-30T04:49:56.655Z,7.70
2019-01-30T04:52:24.334Z,7.77
2019-01-30T04:54:52.055Z,7.33
2019-01-30T04:57:19.750Z,7.83
2019-01-30T04:59:49.095Z,7.83
2019-01-30T05:02:16.803Z,8.03
2019-01-30T05:04:44.481Z,7.47
2019-01-30T05:07:12.103Z,7.20
2019-01-30T05:09:39.779Z,7.87
2019-01-30T05:12:07.368Z,7.53
2019-01-30T05:14:35.056Z,8.00
2019-01-30T05:17:02.838Z,7.77
2019-01-30T05:19:30.583Z,8.20
2019-01-30T05:21:58.210Z,7.47
2019-01-30T05:24:25.937Z,8.03
2019-01-30T05:26:53.629Z,7.73
2019-01-30T05:29:21.433Z,8.03
2019-01-30T05:32:00.629Z,8.27
2019-01-30T05:34:18.710Z,7.83
2019-01-30T05:36:46.376Z,8.37
2019-01-30T05:39:14.080Z,8.13
2019-01-30T05:41:42.831Z,8.37
2019-01-30T05:44:10.497Z,8.43
2019-01-30T05:46:38.296Z,8.70
2019-01-30T05:49:05.965Z,8.43
2019-01-30T05:51:33.664Z,8.67
2019-01-30T05:54:01.306Z,8.53
2019-01-30T05:56:29.015Z,7.80
2019-01-30T05:58:56.622Z,8.70
2019-01-30T06:01:24.289Z,8.00
2019-01-30T06:03:52.033Z,9.03
2019-01-30T06:06:19.862Z,8.27
2019-01-30T06:08:47.540Z,8.33
2019-01-30T06:11:15.284Z,7.83
2019-01-30T06:13:42.938Z,8.87
2019-01-30T06:16:10.704Z,8.30
2019-01-30T06:18:38.415Z,8.73
2019-01-30T06:21:06.101Z,8.00
2019-01-30T06:23:33.769Z,8.20
2019-01-30T06:26:01.551Z,9.13
2019-01-30T06:28:29.510Z,8.30
2019-01-30T06:30:57.353Z,7.90
2019-01-30T06:33:25.057Z,9.07
2019-01-30T06:35:52.755Z,8.83
2019-01-30T06:38:20.522Z,8.93
2019-01-30T06:40:48.185Z,8.90
2019-01-30T06:43:15.876Z,8.87
2019-01-30T06:45:43.587Z,7.73
2019-01-30T06:48:11.248Z,9.10
2019-01-30T06:50:39.123Z,8.77
2019-01-30T06:53:06.781Z,8.87
2019-01-30T06:55:34.453Z,8.17
2019-01-30T06:58:02.177Z,8.57
2019-01-30T07:00:29.880Z,8.90
2019-01-30T07:02:57.961Z,9.03
2019-01-30T07:05:25.707Z,8.30
2019-01-30T07:07:53.381Z,9.40
2019-01-30T07:10:25.713Z,9.03
2019-01-30T07:12:53.557Z,7.50
2019-01-30T07:15:21.904Z,9.17
2019-01-30T07:17:49.584Z,7.93
2019-01-30T07:20:17.353Z,8.20
2019-01-30T07:22:45.128Z,8.40
2019-01-30T07:25:14.409Z,8.67
2019-01-30T07:27:49.560Z,8.07
2019-01-30T07:30:31.511Z,8.30
2019-01-30T07:32:59.261Z,8.83
2019-01-30T07:35:26.990Z,8.47
2019-01-30T07:37:54.699Z,8.07
2019-01-30T07:40:25.781Z,7.87
2019-01-30T07:42:56.570Z,8.13
2019-01-30T07:45:29.853Z,7.80
2019-01-30T07:47:57.622Z,7.77
2019-01-30T07:50:27.670Z,8.10
2019-01-30T07:52:58.691Z,7.67
2019-01-30T07:55:33.839Z,7.87
2019-01-30T07:58:05.947Z,8.27
2019-01-30T08:00:34.040Z,8.43
2019-01-30T08:03:04.005Z,7.20
2019-01-30T08:05:39.867Z,7.70
2019-01-30T08:08:07.895Z,7.27
2019-01-30T08:10:35.855Z,7.60
2019-01-30T08:13:04.457Z,9.00
2019-01-30T08:15:32.386Z,7.47
2019-01-30T08:18:00.351Z,7.80
2019-01-30T08:20:28.289Z,7.93
2019-01-30T08:22:56.472Z,7.93
2019-01-30T08:25:24.476Z,7.27
2019-01-30T08:27:52.886Z,7.70
2019-01-30T08:30:26.156Z,7.93
2019-01-30T08:33:04.257Z,7.93
2019-01-30T08:35:26.370Z,8.00
2019-01-30T08:37:54.330Z,7.90
2019-01-30T08:40:22.274Z,7.80
2019-01-30T08:42:52.259Z,8.17
2019-01-30T08:45:22.766Z,8.33
2019-01-30T08:47:51.729Z,8.13
2019-01-30T08:50:20.154Z,8.63
2019-01-30T08:52:47.936Z,9.53
2019-01-30T08:55:16.027Z,9.10
2019-01-30T08:57:43.980Z,8.80
2019-01-30T09:00:15.545Z,9.00
2019-01-30T09:02:43.492Z,9.30
2019-01-30T09:05:11.634Z,10.10
2019-01-30T09:07:44.448Z,8.60
2019-01-30T09:10:12.415Z,10.03
2019-01-30T09:12:41.639Z,10.50
2019-01-30T09:15:11.219Z,10.10
2019-01-30T09:17:39.036Z,9.67
2019-01-30T09:20:09.708Z,10.00
2019-01-30T09:22:37.583Z,10.13
2019-01-30T09:25:06.630Z,10.33
2019-01-30T09:27:34.363Z,10.03
2019-01-30T09:30:02.813Z,10.17
2019-01-30T09:32:30.489Z,10.50
2019-01-30T09:34:58.214Z,11.30
2019-01-30T09:37:27.339Z,12.27
2019-01-30T09:39:55.028Z,13.07
2019-01-30T09:42:22.888Z,12.60
2019-01-30T09:44:53.760Z,12.03
2019-01-30T09:47:22.612Z,11.80
2019-01-30T09:49:50.422Z,12.93
2019-01-30T09:52:26.693Z,13.83
2019-01-30T09:54:52.284Z,13.47
2019-01-30T09:57:20.185Z,12.70
2019-01-30T09:59:48.165Z,13.63
2019-01-30T10:02:15.892Z,14.53
2019-01-30T10:04:45.820Z,14.77
2019-01-30T10:07:13.699Z,13.77
2019-01-30T10:09:41.599Z,13.50
2019-01-30T10:12:09.432Z,14.87
2019-01-30T10:14:37.710Z,14.80
2019-01-30T10:17:05.531Z,14.47
2019-01-30T10:19:33.291Z,14.87
2019-01-30T10:22:01.071Z,13.60
2019-01-30T10:24:29.128Z,14.90
2019-01-30T10:26:56.945Z,13.90
2019-01-30T10:29:24.694Z,13.87
2019-01-30T10:31:52.434Z,14.03
2019-01-30T10:34:20.177Z,13.33
2019-01-30T10:36:49.640Z,13.30
2019-01-30T10:39:17.429Z,13.20
2019-01-30T10:41:45.068Z,13.77
2019-01-30T10:44:12.796Z,13.50
2019-01-30T10:46:40.529Z,13.53
2019-01-30T10:49:08.269Z,14.13
2019-01-30T10:51:35.938Z,14.33
2019-01-30T10:54:03.798Z,14.17
2019-01-30T10:56:31.492Z,13.13
2019-01-30T10:58:59.546Z,13.37
2019-01-30T11:01:27.183Z,13.67
2019-01-30T11:03:57.671Z,14.07
2019-01-30T11:06:25.388Z,13.20
2019-01-30T11:08:55.054Z,13.50
2019-01-30T11:11:22.885Z,13.97
2019-01-30T11:13:50.868Z,13.03
2019-01-30T11:16:18.542Z,13.57
2019-01-30T11:18:49.157Z,12.83
2019-01-30T11:21:16.798Z,12.80
2019-01-30T11:23:44.723Z,13.33
2019-01-30T11:26:13.068Z,12.90
2019-01-30T11:28:41.094Z,12.70
2019-01-30T11:31:08.763Z,12.33
2019-01-30T11:33:36.570Z,12.00
2019-01-30T11:36:04.218Z,12.83
2019-01-30T11:38:32.408Z,12.50
2019-01-30T11:41:00.100Z,13.30
2019-01-30T11:43:30.085Z,14.37
2019-01-30T11:45:57.826Z,13.60
2019-01-30T11:48:25.513Z,13.80
2019-01-30T11:50:53.268Z,15.00
2019-01-30T11:53:20.934Z,13.40
2019-01-30T11:55:48.732Z,14.53
2019-01-30T11:58:16.576Z,14.00
2019-01-30T12:00:55.319Z,15.23
2019-01-30T12:03:23.461Z,14.80
2019-01-30T12:05:51.440Z,14.90
2019-01-30T12:08:19.434Z,14.63
2019-01-30T12:10:47.377Z,15.30
2019-01-30T12:13:15.369Z,15.17
2019-01-30T12:15:43.797Z,14.10
2019-01-30T12:18:11.901Z,14.63
2019-01-30T12:20:39.881Z,14.70
2019-01-30T12:23:08.999Z,14.77
2019-01-30T12:25:37.187Z,14.80
2019-01-30T12:28:08.167Z,13.97
2019-01-30T12:30:36.058Z,14.97
2019-01-30T12:33:04.061Z,14.13
2019-01-30T12:35:32.440Z,14.83
2019-01-30T12:38:02.385Z,15.03
2019-01-30T12:40:30.216Z,15.93
2019-01-30T12:42:58.204Z,15.40
2019-01-30T12:45:30.977Z,16.13
2019-01-30T12:48:00.253Z,15.80
2019-01-30T12:50:28.843Z,14.83
2019-01-30T12:52:56.818Z,16.13
2019-01-30T12:55:25.337Z,16.50
2019-01-30T12:57:53.518Z,15.40
2019-01-30T13:00:23.523Z,16.33
2019-01-30T13:02:51.821Z,16.03
2019-01-30T13:05:22.252Z,17.10
2019-01-30T13:07:51.444Z,15.73
2019-01-30T13:10:19.618Z,16.90
2019-01-30T13:12:47.560Z,17.00
2019-01-30T13:15:16.337Z,16.60
2019-01-30T13:17:46.580Z,16.43
2019-01-30T13:20:15.707Z,17.03
2019-01-30T13:22:43.773Z,16.50
2019-01-30T13:25:12.271Z,16.87
2019-01-30T13:27:40.128Z,16.13
2019-01-30T13:30:12.248Z,17.17
2019-01-30T13:32:40.920Z,16.53
2019-01-30T13:35:08.788Z,16.87
2019-01-30T13:37:37.944Z,17.90
2019-01-30T13:40:09.722Z,17.10
2019-01-30T13:42:38.156Z,18.13
2019-01-30T13:45:09.188Z,17.23
2019-01-30T13:47:39.712Z,18.57
2019-01-30T13:50:22.488Z,18.53
2019-01-30T13:52:50.592Z,18.70
2019-01-30T13:55:19.139Z,18.03
2019-01-30T13:57:47.257Z,19.20
2019-01-30T14:00:35.894Z,17.90
2019-01-30T14:03:07.162Z,17.43
2019-01-30T14:05:34.899Z,17.67
2019-01-30T14:08:03.626Z,17.47
2019-01-30T14:10:31.444Z,17.70
2019-01-30T14:13:00.371Z,17.53
2019-01-30T14:15:29.009Z,18.10
2019-01-30T14:17:56.726Z,18.80
2019-01-30T14:20:24.596Z,18.07
2019-01-30T14:22:52.495Z,17.60
2019-01-30T14:25:20.555Z,18.53
2019-01-30T14:27:48.379Z,17.97
2019-01-30T14:30:19.347Z,18.07
2019-01-30T14:32:47.194Z,18.70
2019-01-30T14:35:15.016Z,19.07
2019-01-30T14:37:43.194Z,18.33
2019-01-30T14:40:13.218Z,19.10
2019-01-30T14:42:42.769Z,19.03
2019-01-30T14:45:12.698Z,20.47
2019-01-30T14:47:40.560Z,20.87
2019-01-30T14:50:10.667Z,20.33
2019-01-30T14:52:38.445Z,21.20
2019-01-30T14:55:06.732Z,20.57
2019-01-30T14:57:34.826Z,22.20
2019-01-30T15:00:03.000Z,22.83
2019-01-30T15:02:30.898Z,24.30
2019-01-30T15:05:00.605Z,25.07
2019-01-30T15:07:29.367Z,24.30
2019-01-30T15:09:57.863Z,25.20
2019-01-30T15:12:27.432Z,23.40
2019-01-30T15:14:56.150Z,22.90
2019-01-30T15:17:24.319Z,24.33
2019-01-30T15:19:52.028Z,25.23
2019-01-30T15:22:19.755Z,25.00
2019-01-30T15:24:47.697Z,25.17
2019-01-30T15:27:15.504Z,28.27
2019-01-30T15:29:43.963Z,28.87
2019-01-30T15:32:11.722Z,27.33
2019-01-30T15:34:40.549Z,28.23
2019-01-30T15:37:08.229Z,27.33
2019-01-30T15:39:36.007Z,25.77
2019-01-30T15:42:03.850Z,25.17
2019-01-30T15:44:31.579Z,23.53
2019-01-30T15:46:59.267Z,23.80
2019-01-30T15:49:27.043Z,25.00
2019-01-30T15:51:54.750Z,22.97
2019-01-30T15:54:22.570Z,23.73
2019-01-30T15:56:50.195Z,25.50
2019-01-30T15:59:17.860Z,23.93
2019-01-30T16:01:46.757Z,24.10
2019-01-30T16:04:14.526Z,23.60
2019-01-30T16:06:42.396Z,24.20
2019-01-30T16:09:10.308Z,25.07
2019-01-30T16:11:38.227Z,24.43
2019-01-30T16:14:06.911Z,27.17
2019-01-30T16:16:34.615Z,25.27
2019-01-30T16:19:02.357Z,26.43
2019-01-30T16:21:31.091Z,27.80
2019-01-30T16:23:58.939Z,27.53
2019-01-30T16:26:26.694Z,26.47
2019-01-30T16:28:57.073Z,26.77
2019-01-30T16:31:24.907Z,29.20
2019-01-30T16:33:52.612Z,28.70
2019-01-30T16:36:20.414Z,29.03
2019-01-30T16:38:49.145Z,28.07
2019-01-30T16:41:17.855Z,28.97
2019-01-30T16:43:45.971Z,31.27
2019-01-30T16:46:14.242Z,30.03
2019-01-30T16:48:42.224Z,30.00
2019-01-30T16:51:18.970Z,29.97
2019-01-30T16:53:53.892Z,30.13
2019-01-30T16:56:21.586Z,30.10
2019-01-30T16:58:49.307Z,31.07
2019-01-30T17:01:17.467Z,28.27
2019-01-30T17:03:55.539Z,29.17
2019-01-30T17:06:23.895Z,29.33
2019-01-30T17:08:51.599Z,28.40
2019-01-30T17:11:19.958Z,30.13
2019-01-30T17:13:47.717Z,29.57
2019-01-30T17:16:15.594Z,28.53
2019-01-30T17:18:43.373Z,28.53
2019-01-30T17:21:11.061Z,28.27
2019-01-30T17:23:40.644Z,31.03
2019-01-30T17:26:08.348Z,30.87
2019-01-30T17:28:37.201Z,29.53
2019-01-30T17:31:18.250Z,29.83
2019-01-30T17:33:46.092Z,28.90
2019-01-30T17:36:18.616Z,27.93
2019-01-30T17:38:43.595Z,30.60
2019-01-30T17:41:12.977Z,30.53
2019-01-30T17:43:40.708Z,28.57
2019-01-30T17:46:08.557Z,31.13
2019-01-30T17:48:37.413Z,31.27
2019-01-30T17:51:05.229Z,31.90
2019-01-30T17:53:33.489Z,30.63
2019-01-30T17:56:01.149Z,31.83
2019-01-30T17:58:28.932Z,30.90
2019-01-30T18:01:00.577Z,30.27
2019-01-30T18:03:31.116Z,29.93
2019-01-30T18:06:00.316Z,30.60
2019-01-30T18:08:29.177Z,27.80
2019-01-30T18:10:57.489Z,30.93
2019-01-30T18:13:25.592Z,31.73
2019-01-30T18:15:53.430Z,29.63
2019-01-30T18:18:21.694Z,31.40
2019-01-30T18:20:49.459Z,32.30
2019-01-30T18:23:20.111Z,31.50
2019-01-30T18:25:47.865Z,33.13
2019-01-30T18:28:16.281Z,32.37
2019-01-30T18:30:44.962Z,34.23
2019-01-30T18:33:12.754Z,34.00
2019-01-30T18:35:41.226Z,33.07
2019-01-30T18:38:09.670Z,33.40
2019-01-30T18:40:38.196Z,35.83
2019-01-30T18:43:06.457Z,33.80
2019-01-30T18:45:34.278Z,35.20
2019-01-30T18:48:02.583Z,38.97
2019-01-30T18:50:30.435Z,36.43
2019-01-30T18:52:58.850Z,37.43
2019-01-30T18:55:26.697Z,35.40
2019-01-30T18:57:55.073Z,38.30
2019-01-30T19:00:37.051Z,38.60
2019-01-30T19:03:06.986Z,39.63
2019-01-30T19:05:39.663Z,40.37
2019-01-30T19:08:07.863Z,38.73
2019-01-30T19:10:35.920Z,39.17
2019-01-30T19:13:04.324Z,37.17
2019-01-30T19:15:32.125Z,39.37
2019-01-30T19:18:00.315Z,37.30
2019-01-30T19:20:31.072Z,39.10
2019-01-30T19:22:58.748Z,38.87
2019-01-30T19:25:26.660Z,38.20
2019-01-30T19:27:56.177Z,38.50
2019-01-30T19:30:26.330Z,38.77
2019-01-30T19:32:54.111Z,38.87
2019-01-30T19:35:22.580Z,40.37
2019-01-30T19:37:50.291Z,37.33
2019-01-30T19:40:18.155Z,36.83
2019-01-30T19:42:45.846Z,37.13
2019-01-30T19:45:15.262Z,38.47
2019-01-30T19:47:43.671Z,38.20
2019-01-30T19:50:30.842Z,39.57
2019-01-30T19:52:59.442Z,41.00
2019-01-30T19:55:27.705Z,39.13
2019-01-30T19:57:56.107Z,42.20
2019-01-30T20:00:30.666Z,40.37
2019-01-30T20:03:00.371Z,41.83
2019-01-30T20:05:29.018Z,41.53
2019-01-30T20:07:57.003Z,41.10
2019-01-30T20:10:30.438Z,41.17
2019-01-30T20:12:58.603Z,40.43
2019-01-30T20:15:26.712Z,40.47
2019-01-30T20:17:55.110Z,42.00
2019-01-30T20:20:23.270Z,41.60
2019-01-30T20:22:52.040Z,43.07
2019-01-30T20:25:23.085Z,41.07
2019-01-30T20:27:51.007Z,43.30
2019-01-30T20:30:20.835Z,42.63
2019-01-30T20:32:48.670Z,41.70
2019-01-30T20:35:16.827Z,40.37
2019-01-30T20:37:44.698Z,40.17
2019-01-30T20:40:17.427Z,39.60
2019-01-30T20:42:45.139Z,39.57
2019-01-30T20:45:13.240Z,39.97
2019-01-30T20:47:41.448Z,40.13
2019-01-30T20:50:15.005Z,38.23
2019-01-30T20:52:42.795Z,39.07
2019-01-30T20:55:14.526Z,37.90
2019-01-30T20:57:42.622Z,36.43
2019-01-30T21:00:24.327Z,36.73
2019-01-30T21:02:52.231Z,36.07
2019-01-30T21:05:20.147Z,38.07
2019-01-30T21:07:48.779Z,35.90
2019-01-30T21:10:36.873Z,35.23
2019-01-30T21:13:07.215Z,32.30
2019-01-30T21:15:35.257Z,31.37
2019-01-30T21:18:04.344Z,32.20
2019-01-30T21:20:32.480Z,31.20
2019-01-30T21:23:00.162Z,32.53
2019-01-30T21:25:28.561Z,32.60
2019-01-30T21:27:56.240Z,30.43
2019-01-30T21:30:32.972Z,30.83
2019-01-30T21:33:00.680Z,30.17
2019-01-30T21:35:28.805Z,30.30
2019-01-30T21:37:56.531Z,33.00
2019-01-30T21:40:24.571Z,32.60
2019-01-30T21:42:52.505Z,31.77
2019-01-30T21:45:21.758Z,32.97
2019-01-30T21:47:49.574Z,30.67
2019-01-30T21:50:18.778Z,32.50
2019-01-30T21:52:47.314Z,31.80
2019-01-30T21:55:17.317Z,31.23
2019-01-30T21:57:46.946Z,33.47
2019-01-30T22:00:19.586Z,33.87
2019-01-30T22:02:47.383Z,34.20
2019-01-30T22:05:15.669Z,34.57
2019-01-30T22:07:44.188Z,33.37
2019-01-30T22:10:14.892Z,33.77
2019-01-30T22:12:44.600Z,31.67
2019-01-30T22:15:13.661Z,32.23
2019-01-30T22:17:42.178Z,31.87
2019-01-30T22:20:13.080Z,31.93
2019-01-30T22:22:40.866Z,34.17
2019-01-30T22:25:19.974Z,35.60
2019-01-30T22:27:40.982Z,35.33
2019-01-30T22:30:13.527Z,35.23
2019-01-30T22:32:42.211Z,34.00
2019-01-30T22:35:10.301Z,33.43
2019-01-30T22:37:38.662Z,35.00
2019-01-30T22:40:08.207Z,33.53
2019-01-30T22:42:36.521Z,31.00
2019-01-30T22:45:06.605Z,30.90
2019-01-30T22:47:34.890Z,34.83
2019-01-30T22:50:04.868Z,32.43
2019-01-30T22:52:33.307Z,32.07
2019-01-30T22:55:03.349Z,30.00
2019-01-30T22:57:33.061Z,31.03
2019-01-30T23:00:01.372Z,30.73
2019-01-30T23:02:30.151Z,31.63
2019-01-30T23:05:28.302Z,30.60
2019-01-30T23:08:10.059Z,30.00
2019-01-30T23:11:12.543Z,31.63
2019-01-30T23:13:47.930Z,30.17
2019-01-30T23:16:57.329Z,32.07
2019-01-30T23:20:00.446Z,32.87
2019-01-30T23:23:10.483Z,31.93
2019-01-30T23:26:23.671Z,33.03
2019-01-30T23:29:35.409Z,32.93
2019-01-30T23:32:30.046Z,33.60
2019-01-30T23:35:41.457Z,34.60
2019-01-30T23:38:34.468Z,36.53
2019-01-30T23:41:36.729Z,36.10
2019-01-30T23:44:19.087Z,35.03
2019-01-30T23:47:26.127Z,35.97
2019-01-30T23:50:16.499Z,36.80
2019-01-30T23:53:22.931Z,35.17
2019-01-30T23:56:40.388Z,33.40
2019-01-30T23:59:43.578Z,37.03
